Ayer, MA

11:54 AM EDT on October 02, 2014 (GMT -0400)
Ayer Center | Change Station
CLOSE
Current Station
Personal Weather Station
Location: Ayer, MA
Elevation: 230 ft
Nearby Weather Stations

Elev 230 ft 42.56 °N, 71.59 °W | Updated 3 seconds ago

Overcast
Overcast
57.6 °F
Feels Like 57.6 °F
N
0.0
Wind Variable Wind from South
Gusts 0.0 mph

Today
High -- | Low -- °F
--% Chance of Precip.
Yesterday
High -- | Low -- °F
Precip. -- in
6:44 AM 6:26 PM
First Quarter, 60% visible
Pressure 30.21 in
Visibility 10.0 miles
Clouds Overcast 1200 ft
Dew Point 57 °F
Humidity 99%
Rainfall 0.45 in
Snow Depth Not available.
UV 2 out of 12
Pollen 1.10 out of 12
Air Quality Not available.
Flu Activity Not available.
METAR KFIT 021452Z AUTO 01004KT 10SM OVC012 14/11 A3020 RMK AO2 RAB03E12 SLP229 P0000 60001 T01390111 50006

More Conditions Fewer Conditions

Pressure 30.21 in
Visibility 10.0 miles
Clouds Overcast 1200 ft
Dew Point 57 °F
Humidity 99%
Rainfall 0.45 in
Snow Depth Not available.
UV 2 out of 12
Pollen 1.10 out of 12
Air Quality Not available.
Flu Activity Not available.
METAR KFIT 021452Z AUTO 01004KT 10SM OVC012 14/11 A3020 RMK AO2 RAB03E12 SLP229 P0000 60001 T01390111 50006

More Conditions Fewer Conditions

10-Day Weather Forecast

Almanac

Astronomy

Oct. 02, 2014 Rise Set
Actual Time 6:44 AM EDT 6:26 PM EDT
Civil Twilight 6:16 AM EDT 6:54 PM EDT
Nautical Twilight 5:43 AM EDT 7:26 PM EDT
Astronomical Twilight 5:10 AM EDT 7:59 PM EDT
Moon 2:36 PM EDT No Moon Set
Length of Visible Light 12h 37m
Length of Day
11h 41m
Tomorrow will be 2m 52s shorter.
First Quarter, 60% of the Moon is Illuminated
Today
First Quarter
Oct 8
Full
Oct 15
Last Quarter
Oct 23
New
Oct 30
First Quarter

Today's Extremes

State Highs State Lows

Community

WunderPhotos

Upload Photos

1,758,276 photos uploaded!

WunderBlogs® & News

Nearby

Air Quality

  Air Quality AQ Index Pollutant
Thursday Good
PM2.5
Thursday Good
OZONE

Snow Depth

Station Depth Elevation
No new snow has been reported.

Earthquake Activity

City Distance Mag. Time & Date
No recent earthquake activity has been reported nearby.
Minimum magnitude displayed is 2.5.

Coastal Water Temperatures

Place Temperature
Boston, MA 62.1 °F
Providence, RI 64.9 °F
Fall River, MA 66.9 °F
Conimicut Light, RI 64.9 °F

Nearby Weather Stations